sensor_id;sensor_type;location;lat;lon;timestamp;temperature;humidity
10270;DHT22;70826;50.930;5.334;2023-07-08T00:02:13;27.30;73.20
10270;DHT22;70826;50.930;5.334;2023-07-08T00:04:42;27.30;73.20
10270;DHT22;70826;50.930;5.334;2023-07-08T00:07:21;27.30;73.20
10270;DHT22;70826;50.930;5.334;2023-07-08T00:09:50;27.30;73.20
10270;DHT22;70826;50.930;5.334;2023-07-08T00:12:18;27.30;73.20
10270;DHT22;70826;50.930;5.334;2023-07-08T00:14:46;27.30;73.20
10270;DHT22;70826;50.930;5.334;2023-07-08T00:17:13;27.30;73.20
10270;DHT22;70826;50.930;5.334;2023-07-08T00:19:39;27.30;73.20
10270;DHT22;70826;50.930;5.334;2023-07-08T00:22:12;27.30;73.20
10270;DHT22;70826;50.930;5.334;2023-07-08T00:24:41;27.30;73.20
10270;DHT22;70826;50.930;5.334;2023-07-08T00:27:10;27.30;73.20
10270;DHT22;70826;50.930;5.334;2023-07-08T00:29:38;27.30;73.20
10270;DHT22;70826;50.930;5.334;2023-07-08T00:32:12;27.30;73.60
10270;DHT22;70826;50.930;5.334;2023-07-08T00:34:39;27.30;73.20
10270;DHT22;70826;50.930;5.334;2023-07-08T00:37:07;27.30;73.10
10270;DHT22;70826;50.930;5.334;2023-07-08T00:39:34;27.30;73.20
10270;DHT22;70826;50.930;5.334;2023-07-08T00:42:26;27.30;73.20
10270;DHT22;70826;50.930;5.334;2023-07-08T00:44:51;27.30;73.20
10270;DHT22;70826;50.930;5.334;2023-07-08T00:47:17;27.30;73.20
10270;DHT22;70826;50.930;5.334;2023-07-08T00:49:49;27.30;73.20
10270;DHT22;70826;50.930;5.334;2023-07-08T00:52:25;27.30;73.10
10270;DHT22;70826;50.930;5.334;2023-07-08T00:54:59;27.30;73.20
10270;DHT22;70826;50.930;5.334;2023-07-08T00:57:33;27.30;73.20
10270;DHT22;70826;50.930;5.334;2023-07-08T01:00:05;27.30;73.20
10270;DHT22;70826;50.930;5.334;2023-07-08T01:02:38;27.30;73.20
10270;DHT22;70826;50.930;5.334;2023-07-08T01:05:12;27.30;73.20
10270;DHT22;70826;50.930;5.334;2023-07-08T01:07:44;27.30;73.20
10270;DHT22;70826;50.930;5.334;2023-07-08T01:10:17;27.30;73.20
10270;DHT22;70826;50.930;5.334;2023-07-08T01:12:48;27.30;73.30
10270;DHT22;70826;50.930;5.334;2023-07-08T01:15:17;27.30;73.30
10270;DHT22;70826;50.930;5.334;2023-07-08T01:17:44;27.30;73.20
10270;DHT22;70826;50.930;5.334;2023-07-08T01:20:11;27.30;73.30
10270;DHT22;70826;50.930;5.334;2023-07-08T01:22:41;27.30;73.30
10270;DHT22;70826;50.930;5.334;2023-07-08T01:25:11;27.20;73.20
10270;DHT22;70826;50.930;5.334;2023-07-08T01:27:42;27.20;73.30
10270;DHT22;70826;50.930;5.334;2023-07-08T01:30:08;27.30;73.30
10270;DHT22;70826;50.930;5.334;2023-07-08T01:32:41;27.30;73.30
10270;DHT22;70826;50.930;5.334;2023-07-08T01:35:09;27.30;73.30
10270;DHT22;70826;50.930;5.334;2023-07-08T01:37:46;27.20;73.30
10270;DHT22;70826;50.930;5.334;2023-07-08T01:42:47;27.20;73.30
10270;DHT22;70826;50.930;5.334;2023-07-08T01:45:18;27.20;73.30
10270;DHT22;70826;50.930;5.334;2023-07-08T01:47:59;27.20;73.30
10270;DHT22;70826;50.930;5.334;2023-07-08T01:50:29;27.20;73.30
10270;DHT22;70826;50.930;5.334;2023-07-08T01:52:59;27.20;73.30
10270;DHT22;70826;50.930;5.334;2023-07-08T01:55:28;27.20;73.30
10270;DHT22;70826;50.930;5.334;2023-07-08T01:57:54;27.20;73.30
10270;DHT22;70826;50.930;5.334;2023-07-08T02:00:21;27.30;73.40
10270;DHT22;70826;50.930;5.334;2023-07-08T02:02:49;27.20;73.40
10270;DHT22;70826;50.930;5.334;2023-07-08T02:05:19;27.20;73.40
10270;DHT22;70826;50.930;5.334;2023-07-08T02:07:48;27.20;73.40
10270;DHT22;70826;50.930;5.334;2023-07-08T02:10:16;27.20;73.40
10270;DHT22;70826;50.930;5.334;2023-07-08T02:12:45;27.20;73.40
10270;DHT22;70826;50.930;5.334;2023-07-08T02:15:13;27.20;73.40
10270;DHT22;70826;50.930;5.334;2023-07-08T02:17:39;27.20;73.40
10270;DHT22;70826;50.930;5.334;2023-07-08T02:20:10;27.30;73.50
10270;DHT22;70826;50.930;5.334;2023-07-08T02:22:36;27.30;73.50
10270;DHT22;70826;50.930;5.334;2023-07-08T02:25:05;27.30;73.50
10270;DHT22;70826;50.930;5.334;2023-07-08T02:27:36;27.20;73.40
10270;DHT22;70826;50.930;5.334;2023-07-08T02:30:05;27.20;73.40
10270;DHT22;70826;50.930;5.334;2023-07-08T02:32:32;27.30;73.50
10270;DHT22;70826;50.930;5.334;2023-07-08T02:35:01;27.20;73.40
10270;DHT22;70826;50.930;5.334;2023-07-08T02:37:31;27.20;73.40
10270;DHT22;70826;50.930;5.334;2023-07-08T02:39:57;27.20;73.50
10270;DHT22;70826;50.930;5.334;2023-07-08T02:42:24;27.20;73.40
10270;DHT22;70826;50.930;5.334;2023-07-08T02:44:50;27.20;73.40
10270;DHT22;70826;50.930;5.334;2023-07-08T02:47:16;27.30;73.50
10270;DHT22;70826;50.930;5.334;2023-07-08T02:49:46;27.20;73.50
10270;DHT22;70826;50.930;5.334;2023-07-08T02:52:12;27.30;73.60
10270;DHT22;70826;50.930;5.334;2023-07-08T02:54:41;27.20;74.10
10270;DHT22;70826;50.930;5.334;2023-07-08T02:57:11;27.20;73.50
10270;DHT22;70826;50.930;5.334;2023-07-08T02:59:37;27.20;73.50
10270;DHT22;70826;50.930;5.334;2023-07-08T03:02:04;27.20;73.50
10270;DHT22;70826;50.930;5.334;2023-07-08T03:04:29;27.20;73.50
10270;DHT22;70826;50.930;5.334;2023-07-08T03:06:59;27.30;73.60
10270;DHT22;70826;50.930;5.334;2023-07-08T03:09:26;27.20;73.50
10270;DHT22;70826;50.930;5.334;2023-07-08T03:11:55;27.20;73.50
10270;DHT22;70826;50.930;5.334;2023-07-08T03:14:23;27.20;73.50
10270;DHT22;70826;50.930;5.334;2023-07-08T03:16:51;27.30;73.60
10270;DHT22;70826;50.930;5.334;2023-07-08T03:19:20;27.20;73.60
10270;DHT22;70826;50.930;5.334;2023-07-08T03:21:48;27.20;73.60
10270;DHT22;70826;50.930;5.334;2023-07-08T03:24:16;27.20;73.60
10270;DHT22;70826;50.930;5.334;2023-07-08T03:26:46;27.20;73.60
10270;DHT22;70826;50.930;5.334;2023-07-08T03:29:19;27.20;73.60
10270;DHT22;70826;50.930;5.334;2023-07-08T03:31:48;27.20;73.60
10270;DHT22;70826;50.930;5.334;2023-07-08T03:34:15;27.20;73.60
10270;DHT22;70826;50.930;5.334;2023-07-08T03:36:49;27.20;73.60
10270;DHT22;70826;50.930;5.334;2023-07-08T03:39:20;27.20;73.60
10270;DHT22;70826;50.930;5.334;2023-07-08T03:41:47;27.20;73.60
10270;DHT22;70826;50.930;5.334;2023-07-08T03:44:13;27.30;73.70
10270;DHT22;70826;50.930;5.334;2023-07-08T03:46:43;27.20;73.60
10270;DHT22;70826;50.930;5.334;2023-07-08T03:49:13;27.20;73.60
10270;DHT22;70826;50.930;5.334;2023-07-08T03:51:43;27.20;73.60
10270;DHT22;70826;50.930;5.334;2023-07-08T03:54:14;27.20;73.60
10270;DHT22;70826;50.930;5.334;2023-07-08T03:56:40;27.20;73.60
10270;DHT22;70826;50.930;5.334;2023-07-08T03:59:07;27.20;73.60
10270;DHT22;70826;50.930;5.334;2023-07-08T04:01:35;27.20;73.70
10270;DHT22;70826;50.930;5.334;2023-07-08T04:04:04;27.20;73.60
10270;DHT22;70826;50.930;5.334;2023-07-08T04:06:30;27.20;73.60
10270;DHT22;70826;50.930;5.334;2023-07-08T04:08:56;27.20;73.60
10270;DHT22;70826;50.930;5.334;2023-07-08T04:11:24;27.20;73.60
10270;DHT22;70826;50.930;5.334;2023-07-08T04:13:51;27.20;73.70
10270;DHT22;70826;50.930;5.334;2023-07-08T04:16:50;27.20;73.60
10270;DHT22;70826;50.930;5.334;2023-07-08T04:19:16;27.20;73.70
10270;DHT22;70826;50.930;5.334;2023-07-08T04:21:44;27.20;73.70
10270;DHT22;70826;50.930;5.334;2023-07-08T04:24:12;27.20;73.70
10270;DHT22;70826;50.930;5.334;2023-07-08T04:26:43;27.20;73.70
10270;DHT22;70826;50.930;5.334;2023-07-08T04:29:17;27.20;73.70
10270;DHT22;70826;50.930;5.334;2023-07-08T04:31:45;27.20;73.70
10270;DHT22;70826;50.930;5.334;2023-07-08T04:34:11;27.20;74.40
10270;DHT22;70826;50.930;5.334;2023-07-08T04:36:39;27.20;73.70
10270;DHT22;70826;50.930;5.334;2023-07-08T04:39:07;27.20;73.70
10270;DHT22;70826;50.930;5.334;2023-07-08T04:41:35;27.20;73.80
10270;DHT22;70826;50.930;5.334;2023-07-08T04:44:08;27.20;73.80
10270;DHT22;70826;50.930;5.334;2023-07-08T04:46:40;27.20;73.80
10270;DHT22;70826;50.930;5.334;2023-07-08T04:49:07;27.20;73.80
10270;DHT22;70826;50.930;5.334;2023-07-08T04:51:35;27.20;73.80
10270;DHT22;70826;50.930;5.334;2023-07-08T04:54:02;27.20;73.90
10270;DHT22;70826;50.930;5.334;2023-07-08T04:56:49;27.20;73.90
10270;DHT22;70826;50.930;5.334;2023-07-08T04:59:22;27.20;73.90
10270;DHT22;70826;50.930;5.334;2023-07-08T05:01:48;27.20;73.80
10270;DHT22;70826;50.930;5.334;2023-07-08T05:04:16;27.20;73.90
10270;DHT22;70826;50.930;5.334;2023-07-08T05:06:44;27.20;73.90
10270;DHT22;70826;50.930;5.334;2023-07-08T05:09:10;27.20;74.00
10270;DHT22;70826;50.930;5.334;2023-07-08T05:11:38;27.20;74.00
10270;DHT22;70826;50.930;5.334;2023-07-08T05:14:05;27.20;74.00
10270;DHT22;70826;50.930;5.334;2023-07-08T05:16:35;27.20;74.00
10270;DHT22;70826;50.930;5.334;2023-07-08T05:19:22;27.20;74.00
10270;DHT22;70826;50.930;5.334;2023-07-08T05:21:51;27.20;74.00
10270;DHT22;70826;50.930;5.334;2023-07-08T05:24:18;27.20;73.50
10270;DHT22;70826;50.930;5.334;2023-07-08T05:26:49;27.20;74.00
10270;DHT22;70826;50.930;5.334;2023-07-08T05:29:17;27.20;74.00
10270;DHT22;70826;50.930;5.334;2023-07-08T05:31:43;27.20;74.60
10270;DHT22;70826;50.930;5.334;2023-07-08T05:34:12;27.20;74.00
10270;DHT22;70826;50.930;5.334;2023-07-08T05:36:38;27.20;74.00
10270;DHT22;70826;50.930;5.334;2023-07-08T05:39:09;27.20;74.00
10270;DHT22;70826;50.930;5.334;2023-07-08T05:41:34;27.20;74.00
10270;DHT22;70826;50.930;5.334;2023-07-08T05:44:05;27.20;74.00
10270;DHT22;70826;50.930;5.334;2023-07-08T05:46:30;27.20;74.00
10270;DHT22;70826;50.930;5.334;2023-07-08T05:48:56;27.20;74.00
10270;DHT22;70826;50.930;5.334;2023-07-08T05:51:24;27.20;74.00
10270;DHT22;70826;50.930;5.334;2023-07-08T05:53:55;27.20;74.00
10270;DHT22;70826;50.930;5.334;2023-07-08T05:56:23;27.20;74.00
10270;DHT22;70826;50.930;5.334;2023-07-08T05:58:49;27.20;74.00
10270;DHT22;70826;50.930;5.334;2023-07-08T06:01:17;27.20;74.00
10270;DHT22;70826;50.930;5.334;2023-07-08T06:03:43;27.20;74.00
10270;DHT22;70826;50.930;5.334;2023-07-08T06:06:12;27.20;74.00
10270;DHT22;70826;50.930;5.334;2023-07-08T06:08:38;27.20;74.00
10270;DHT22;70826;50.930;5.334;2023-07-08T06:11:06;27.20;73.90
10270;DHT22;70826;50.930;5.334;2023-07-08T06:13:32;27.20;74.00
10270;DHT22;70826;50.930;5.334;2023-07-08T06:15:58;27.20;73.90
10270;DHT22;70826;50.930;5.334;2023-07-08T06:18:29;27.20;73.90
10270;DHT22;70826;50.930;5.334;2023-07-08T06:20:58;27.20;73.90
10270;DHT22;70826;50.930;5.334;2023-07-08T06:23:29;27.20;73.90
10270;DHT22;70826;50.930;5.334;2023-07-08T06:25:56;27.20;74.00
10270;DHT22;70826;50.930;5.334;2023-07-08T06:28:22;27.20;73.90
10270;DHT22;70826;50.930;5.334;2023-07-08T06:30:49;27.20;73.90
10270;DHT22;70826;50.930;5.334;2023-07-08T06:33:15;27.20;74.00
10270;DHT22;70826;50.930;5.334;2023-07-08T06:35:42;27.20;74.00
10270;DHT22;70826;50.930;5.334;2023-07-08T06:38:12;27.20;74.00
10270;DHT22;70826;50.930;5.334;2023-07-08T06:40:40;27.20;74.00
10270;DHT22;70826;50.930;5.334;2023-07-08T06:43:09;27.20;74.00
10270;DHT22;70826;50.930;5.334;2023-07-08T06:45:34;27.20;74.00
10270;DHT22;70826;50.930;5.334;2023-07-08T06:48:00;27.30;74.10
10270;DHT22;70826;50.930;5.334;2023-07-08T06:50:27;27.30;74.20
10270;DHT22;70826;50.930;5.334;2023-07-08T06:52:55;27.20;74.10
10270;DHT22;70826;50.930;5.334;2023-07-08T06:55:22;27.30;74.20
10270;DHT22;70826;50.930;5.334;2023-07-08T06:57:49;27.30;74.20
10270;DHT22;70826;50.930;5.334;2023-07-08T07:00:17;27.30;74.20
10270;DHT22;70826;50.930;5.334;2023-07-08T07:02:45;27.30;74.30
10270;DHT22;70826;50.930;5.334;2023-07-08T07:05:13;27.20;74.20
10270;DHT22;70826;50.930;5.334;2023-07-08T07:07:44;27.20;74.20
10270;DHT22;70826;50.930;5.334;2023-07-08T07:10:12;27.20;74.20
10270;DHT22;70826;50.930;5.334;2023-07-08T07:12:38;27.30;74.30
10270;DHT22;70826;50.930;5.334;2023-07-08T07:15:07;27.30;74.40
10270;DHT22;70826;50.930;5.334;2023-07-08T07:17:35;27.30;74.40
10270;DHT22;70826;50.930;5.334;2023-07-08T07:20:04;27.30;74.40
10270;DHT22;70826;50.930;5.334;2023-07-08T07:22:30;27.20;74.30
10270;DHT22;70826;50.930;5.334;2023-07-08T07:25:00;27.30;74.40
10270;DHT22;70826;50.930;5.334;2023-07-08T07:27:26;27.30;74.40
10270;DHT22;70826;50.930;5.334;2023-07-08T07:29:57;27.30;74.40
10270;DHT22;70826;50.930;5.334;2023-07-08T07:32:25;27.30;74.40
10270;DHT22;70826;50.930;5.334;2023-07-08T07:34:57;27.30;74.40
10270;DHT22;70826;50.930;5.334;2023-07-08T07:37:24;27.30;74.40
10270;DHT22;70826;50.930;5.334;2023-07-08T07:39:52;27.30;74.40
10270;DHT22;70826;50.930;5.334;2023-07-08T07:42:20;27.30;74.70
10270;DHT22;70826;50.930;5.334;2023-07-08T07:44:46;27.30;74.40
10270;DHT22;70826;50.930;5.334;2023-07-08T07:47:17;27.30;74.50
10270;DHT22;70826;50.930;5.334;2023-07-08T07:49:42;27.30;74.50
10270;DHT22;70826;50.930;5.334;2023-07-08T07:52:11;27.30;74.80
10270;DHT22;70826;50.930;5.334;2023-07-08T07:54:40;27.30;74.90
10270;DHT22;70826;50.930;5.334;2023-07-08T07:57:06;27.20;74.80
10270;DHT22;70826;50.930;5.334;2023-07-08T07:59:34;27.30;74.70
10270;DHT22;70826;50.930;5.334;2023-07-08T08:02:00;27.30;74.50
10270;DHT22;70826;50.930;5.334;2023-07-08T08:04:26;27.30;74.40
10270;DHT22;70826;50.930;5.334;2023-07-08T08:06:55;27.30;74.30
10270;DHT22;70826;50.930;5.334;2023-07-08T08:09:20;27.30;74.20
10270;DHT22;70826;50.930;5.334;2023-07-08T08:11:49;27.30;74.20
10270;DHT22;70826;50.930;5.334;2023-07-08T08:14:19;27.30;74.20
10270;DHT22;70826;50.930;5.334;2023-07-08T08:16:45;27.30;74.20
10270;DHT22;70826;50.930;5.334;2023-07-08T08:19:15;27.30;74.20
10270;DHT22;70826;50.930;5.334;2023-07-08T08:21:44;27.30;74.20
10270;DHT22;70826;50.930;5.334;2023-07-08T08:24:10;27.30;74.20
10270;DHT22;70826;50.930;5.334;2023-07-08T08:26:35;27.30;74.20
10270;DHT22;70826;50.930;5.334;2023-07-08T08:29:01;27.30;74.30
10270;DHT22;70826;50.930;5.334;2023-07-08T08:31:29;27.30;74.30
10270;DHT22;70826;50.930;5.334;2023-07-08T08:33:57;27.30;74.30
10270;DHT22;70826;50.930;5.334;2023-07-08T08:36:23;27.30;74.30
10270;DHT22;70826;50.930;5.334;2023-07-08T08:38:52;27.30;74.30
10270;DHT22;70826;50.930;5.334;2023-07-08T08:41:31;27.30;74.30
10270;DHT22;70826;50.930;5.334;2023-07-08T08:44:00;27.30;74.40
10270;DHT22;70826;50.930;5.334;2023-07-08T08:46:41;27.30;74.30
10270;DHT22;70826;50.930;5.334;2023-07-08T08:49:50;27.30;74.40
10270;DHT22;70826;50.930;5.334;2023-07-08T08:52:21;27.30;74.40
10270;DHT22;70826;50.930;5.334;2023-07-08T08:54:49;27.30;74.40
10270;DHT22;70826;50.930;5.334;2023-07-08T08:57:40;27.30;74.60
10270;DHT22;70826;50.930;5.334;2023-07-08T09:00:10;27.30;74.70
10270;DHT22;70826;50.930;5.334;2023-07-08T09:02:57;27.30;74.60
10270;DHT22;70826;50.930;5.334;2023-07-08T09:05:27;27.30;74.70
10270;DHT22;70826;50.930;5.334;2023-07-08T09:08:05;27.30;74.70
10270;DHT22;70826;50.930;5.334;2023-07-08T09:13:16;27.30;74.70
10270;DHT22;70826;50.930;5.334;2023-07-08T09:15:44;27.30;74.70
10270;DHT22;70826;50.930;5.334;2023-07-08T09:18:19;27.30;74.70
10270;DHT22;70826;50.930;5.334;2023-07-08T09:20:47;27.30;74.80
10270;DHT22;70826;50.930;5.334;2023-07-08T09:23:23;27.30;74.70
10270;DHT22;70826;50.930;5.334;2023-07-08T09:25:59;27.30;74.70
10270;DHT22;70826;50.930;5.334;2023-07-08T09:28:44;27.30;74.70
10270;DHT22;70826;50.930;5.334;2023-07-08T09:31:29;27.30;74.80
10270;DHT22;70826;50.930;5.334;2023-07-08T09:34:35;27.30;74.80
10270;DHT22;70826;50.930;5.334;2023-07-08T09:37:03;27.30;74.80
10270;DHT22;70826;50.930;5.334;2023-07-08T09:39:35;27.40;74.70
10270;DHT22;70826;50.930;5.334;2023-07-08T09:42:07;27.30;74.60
10270;DHT22;70826;50.930;5.334;2023-07-08T09:44:34;27.30;74.70
10270;DHT22;70826;50.930;5.334;2023-07-08T09:47:15;27.40;74.70
10270;DHT22;70826;50.930;5.334;2023-07-08T09:49:50;27.40;74.80
10270;DHT22;70826;50.930;5.334;2023-07-08T09:52:17;27.40;74.80
10270;DHT22;70826;50.930;5.334;2023-07-08T09:54:48;27.40;74.80
10270;DHT22;70826;50.930;5.334;2023-07-08T09:57:28;27.40;74.80
10270;DHT22;70826;50.930;5.334;2023-07-08T10:00:09;27.40;74.90
10270;DHT22;70826;50.930;5.334;2023-07-08T10:02:41;27.30;75.00
10270;DHT22;70826;50.930;5.334;2023-07-08T10:05:34;27.40;75.10
10270;DHT22;70826;50.930;5.334;2023-07-08T10:08:03;27.30;75.20
10270;DHT22;70826;50.930;5.334;2023-07-08T10:10:40;27.40;75.30
10270;DHT22;70826;50.930;5.334;2023-07-08T10:15:55;27.40;75.30
10270;DHT22;70826;50.930;5.334;2023-07-08T10:18:31;27.40;75.40
10270;DHT22;70826;50.930;5.334;2023-07-08T10:26:33;27.40;76.10
10270;DHT22;70826;50.930;5.334;2023-07-08T10:29:07;27.40;76.00
10270;DHT22;70826;50.930;5.334;2023-07-08T10:34:39;27.50;76.50
10270;DHT22;70826;50.930;5.334;2023-07-08T10:40:46;27.50;76.90
10270;DHT22;70826;50.930;5.334;2023-07-08T11:08:25;27.50;76.30
10270;DHT22;70826;50.930;5.334;2023-07-08T11:10:58;27.50;76.40
10270;DHT22;70826;50.930;5.334;2023-07-08T11:13:28;27.50;76.30
10270;DHT22;70826;50.930;5.334;2023-07-08T11:16:06;27.50;76.30
10270;DHT22;70826;50.930;5.334;2023-07-08T11:18:56;27.50;76.30
10270;DHT22;70826;50.930;5.334;2023-07-08T11:21:30;27.50;76.30
10270;DHT22;70826;50.930;5.334;2023-07-08T11:24:21;27.50;76.20
10270;DHT22;70826;50.930;5.334;2023-07-08T11:27:39;27.50;76.30
10270;DHT22;70826;50.930;5.334;2023-07-08T11:30:02;27.50;76.40
10270;DHT22;70826;50.930;5.334;2023-07-08T11:32:31;27.50;76.40
10270;DHT22;70826;50.930;5.334;2023-07-08T11:35:05;27.50;76.40
10270;DHT22;70826;50.930;5.334;2023-07-08T11:37:35;27.50;76.30
10270;DHT22;70826;50.930;5.334;2023-07-08T11:40:17;27.50;76.30
10270;DHT22;70826;50.930;5.334;2023-07-08T11:42:49;27.50;76.30
10270;DHT22;70826;50.930;5.334;2023-07-08T11:45:27;27.50;76.20
10270;DHT22;70826;50.930;5.334;2023-07-08T11:48:09;27.50;76.10
10270;DHT22;70826;50.930;5.334;2023-07-08T11:50:41;27.50;76.10
10270;DHT22;70826;50.930;5.334;2023-07-08T11:53:36;27.50;76.10
10270;DHT22;70826;50.930;5.334;2023-07-08T11:58:51;27.50;76.00
10270;DHT22;70826;50.930;5.334;2023-07-08T12:01:31;27.50;76.00
10270;DHT22;70826;50.930;5.334;2023-07-08T12:07:09;27.50;76.00
10270;DHT22;70826;50.930;5.334;2023-07-08T12:09:39;27.50;75.90
10270;DHT22;70826;50.930;5.334;2023-07-08T12:12:27;27.50;75.90
10270;DHT22;70826;50.930;5.334;2023-07-08T12:15:00;27.50;75.90
10270;DHT22;70826;50.930;5.334;2023-07-08T12:17:32;27.50;75.90
10270;DHT22;70826;50.930;5.334;2023-07-08T12:20:01;27.50;75.90
10270;DHT22;70826;50.930;5.334;2023-07-08T12:22:31;27.50;76.00
10270;DHT22;70826;50.930;5.334;2023-07-08T12:24:57;27.50;76.10
10270;DHT22;70826;50.930;5.334;2023-07-08T12:27:29;27.60;76.20
10270;DHT22;70826;50.930;5.334;2023-07-08T12:29:56;27.60;76.30
10270;DHT22;70826;50.930;5.334;2023-07-08T12:32:25;27.60;76.30
10270;DHT22;70826;50.930;5.334;2023-07-08T12:34:55;27.60;76.30
10270;DHT22;70826;50.930;5.334;2023-07-08T12:37:24;27.60;76.40
10270;DHT22;70826;50.930;5.334;2023-07-08T12:39:57;27.60;76.40
10270;DHT22;70826;50.930;5.334;2023-07-08T12:42:32;27.60;76.40
10270;DHT22;70826;50.930;5.334;2023-07-08T12:44:58;27.60;76.40
10270;DHT22;70826;50.930;5.334;2023-07-08T12:47:24;27.60;76.50
10270;DHT22;70826;50.930;5.334;2023-07-08T12:49:53;27.60;76.40
10270;DHT22;70826;50.930;5.334;2023-07-08T12:52:25;27.60;76.50
10270;DHT22;70826;50.930;5.334;2023-07-08T12:54:53;27.60;76.50
10270;DHT22;70826;50.930;5.334;2023-07-08T12:57:21;27.60;76.60
10270;DHT22;70826;50.930;5.334;2023-07-08T12:59:49;27.60;76.60
10270;DHT22;70826;50.930;5.334;2023-07-08T13:02:21;27.60;76.60
10270;DHT22;70826;50.930;5.334;2023-07-08T13:04:56;27.60;76.60
10270;DHT22;70826;50.930;5.334;2023-07-08T13:07:33;27.60;76.60
10270;DHT22;70826;50.930;5.334;2023-07-08T13:10:02;27.60;76.70
10270;DHT22;70826;50.930;5.334;2023-07-08T13:12:31;27.60;76.70
10270;DHT22;70826;50.930;5.334;2023-07-08T13:15:04;27.60;76.70
10270;DHT22;70826;50.930;5.334;2023-07-08T13:17:33;27.60;76.80
10270;DHT22;70826;50.930;5.334;2023-07-08T13:20:07;27.60;76.90
10270;DHT22;70826;50.930;5.334;2023-07-08T13:22:36;27.60;77.40
10270;DHT22;70826;50.930;5.334;2023-07-08T13:25:03;27.60;77.50
10270;DHT22;70826;50.930;5.334;2023-07-08T13:27:38;27.60;77.40
10270;DHT22;70826;50.930;5.334;2023-07-08T13:30:19;27.60;77.30
10270;DHT22;70826;50.930;5.334;2023-07-08T13:32:51;27.60;77.20
10270;DHT22;70826;50.930;5.334;2023-07-08T13:35:34;27.60;77.10
10270;DHT22;70826;50.930;5.334;2023-07-08T13:38:04;27.60;77.10
10270;DHT22;70826;50.930;5.334;2023-07-08T13:40:32;27.60;77.00
10270;DHT22;70826;50.930;5.334;2023-07-08T13:43:02;27.60;77.00
10270;DHT22;70826;50.930;5.334;2023-07-08T13:45:31;27.60;76.90
10270;DHT22;70826;50.930;5.334;2023-07-08T13:50:50;27.60;76.90
10270;DHT22;70826;50.930;5.334;2023-07-08T13:53:26;27.60;76.90
10270;DHT22;70826;50.930;5.334;2023-07-08T13:56:02;27.60;76.90
10270;DHT22;70826;50.930;5.334;2023-07-08T13:58:30;27.60;76.80
10270;DHT22;70826;50.930;5.334;2023-07-08T14:00:58;27.60;76.80
10270;DHT22;70826;50.930;5.334;2023-07-08T14:03:26;27.60;76.80
10270;DHT22;70826;50.930;5.334;2023-07-08T14:05:55;27.60;76.80
10270;DHT22;70826;50.930;5.334;2023-07-08T14:08:21;27.60;76.80
10270;DHT22;70826;50.930;5.334;2023-07-08T14:10:50;27.60;76.80
10270;DHT22;70826;50.930;5.334;2023-07-08T14:13:15;27.60;76.80
10270;DHT22;70826;50.930;5.334;2023-07-08T14:15:45;27.60;76.70
10270;DHT22;70826;50.930;5.334;2023-07-08T14:18:15;27.60;76.70
10270;DHT22;70826;50.930;5.334;2023-07-08T14:20:40;27.60;76.70
10270;DHT22;70826;50.930;5.334;2023-07-08T14:23:08;27.60;76.80
10270;DHT22;70826;50.930;5.334;2023-07-08T14:25:36;27.60;76.80
10270;DHT22;70826;50.930;5.334;2023-07-08T14:28:02;27.60;76.70
10270;DHT22;70826;50.930;5.334;2023-07-08T14:30:34;27.60;76.80
10270;DHT22;70826;50.930;5.334;2023-07-08T14:33:01;27.60;76.90
10270;DHT22;70826;50.930;5.334;2023-07-08T14:35:28;27.60;76.90
10270;DHT22;70826;50.930;5.334;2023-07-08T14:37:57;27.60;77.00
10270;DHT22;70826;50.930;5.334;2023-07-08T14:40:36;27.60;77.10
10270;DHT22;70826;50.930;5.334;2023-07-08T14:43:27;27.60;77.20
10270;DHT22;70826;50.930;5.334;2023-07-08T14:45:53;27.60;77.50
10270;DHT22;70826;50.930;5.334;2023-07-08T14:48:19;27.50;77.80
10270;DHT22;70826;50.930;5.334;2023-07-08T14:50:46;27.40;78.20
10270;DHT22;70826;50.930;5.334;2023-07-08T14:53:16;27.40;78.50
10270;DHT22;70826;50.930;5.334;2023-07-08T14:55:49;27.40;78.90
10270;DHT22;70826;50.930;5.334;2023-07-08T14:58:25;27.40;79.00
10270;DHT22;70826;50.930;5.334;2023-07-08T15:00:59;27.40;79.30
10270;DHT22;70826;50.930;5.334;2023-07-08T15:03:28;27.40;79.30
10270;DHT22;70826;50.930;5.334;2023-07-08T15:05:54;27.50;79.50
10270;DHT22;70826;50.930;5.334;2023-07-08T15:08:23;27.50;79.40
10270;DHT22;70826;50.930;5.334;2023-07-08T15:10:55;27.60;79.30
10270;DHT22;70826;50.930;5.334;2023-07-08T15:13:26;27.70;79.20
10270;DHT22;70826;50.930;5.334;2023-07-08T15:15:53;27.70;79.10
10270;DHT22;70826;50.930;5.334;2023-07-08T15:18:22;27.70;79.00
10270;DHT22;70826;50.930;5.334;2023-07-08T15:20:48;27.70;78.90
10270;DHT22;70826;50.930;5.334;2023-07-08T15:23:16;27.80;79.00
10270;DHT22;70826;50.930;5.334;2023-07-08T15:25:44;27.80;78.90
10270;DHT22;70826;50.930;5.334;2023-07-08T15:28:59;27.80;78.80
10270;DHT22;70826;50.930;5.334;2023-07-08T15:31:17;27.80;78.80
10270;DHT22;70826;50.930;5.334;2023-07-08T15:33:44;27.80;78.70
10270;DHT22;70826;50.930;5.334;2023-07-08T15:36:15;27.80;78.70
10270;DHT22;70826;50.930;5.334;2023-07-08T15:38:43;27.80;78.70
10270;DHT22;70826;50.930;5.334;2023-07-08T15:41:19;27.80;78.60
10270;DHT22;70826;50.930;5.334;2023-07-08T15:43:46;27.80;78.60
10270;DHT22;70826;50.930;5.334;2023-07-08T15:46:12;27.80;78.50
10270;DHT22;70826;50.930;5.334;2023-07-08T15:48:43;27.80;78.50
10270;DHT22;70826;50.930;5.334;2023-07-08T15:51:16;27.80;78.50
10270;DHT22;70826;50.930;5.334;2023-07-08T15:53:44;27.80;78.50
10270;DHT22;70826;50.930;5.334;2023-07-08T15:56:19;27.80;78.40
10270;DHT22;70826;50.930;5.334;2023-07-08T15:58:45;27.80;78.40
10270;DHT22;70826;50.930;5.334;2023-07-08T16:01:23;27.80;78.40
10270;DHT22;70826;50.930;5.334;2023-07-08T16:03:51;27.80;78.50
10270;DHT22;70826;50.930;5.334;2023-07-08T16:06:18;27.80;78.40
10270;DHT22;70826;50.930;5.334;2023-07-08T16:08:44;27.80;78.40
10270;DHT22;70826;50.930;5.334;2023-07-08T16:11:20;27.80;78.30
10270;DHT22;70826;50.930;5.334;2023-07-08T16:13:50;27.80;78.40
10270;DHT22;70826;50.930;5.334;2023-07-08T16:16:20;27.80;78.30
10270;DHT22;70826;50.930;5.334;2023-07-08T16:18:49;27.80;78.30
10270;DHT22;70826;50.930;5.334;2023-07-08T16:21:15;27.80;78.30
10270;DHT22;70826;50.930;5.334;2023-07-08T16:23:46;27.80;78.30
10270;DHT22;70826;50.930;5.334;2023-07-08T16:26:17;27.80;78.30
10270;DHT22;70826;50.930;5.334;2023-07-08T16:28:52;27.80;78.30
10270;DHT22;70826;50.930;5.334;2023-07-08T16:31:20;27.80;78.30
10270;DHT22;70826;50.930;5.334;2023-07-08T16:33:48;27.80;78.30
10270;DHT22;70826;50.930;5.334;2023-07-08T16:36:23;27.70;78.20
10270;DHT22;70826;50.930;5.334;2023-07-08T16:38:51;27.80;78.20
10270;DHT22;70826;50.930;5.334;2023-07-08T16:41:25;27.80;78.10
10270;DHT22;70826;50.930;5.334;2023-07-08T16:43:55;27.80;78.10
10270;DHT22;70826;50.930;5.334;2023-07-08T16:46:22;27.80;78.10